Time;durP1;ratioP1;P1;durP2;ratioP2;P2;SDS_P1;SDS_P2;PMS_P1;PMS_P2;Temp;Humidity;BMP_temperature;BMP_pressure;BME280_temperature;BME280_humidity;BME280_pressure;Samples;Min_cycle;Max_cycle;Signal;HPM_P1;HPM_P2
2022/12/13 00:01:35;;;;;;;75.83;20.53;;;-1.70;94.50;;;;;;5018807;28;20481;-59
2022/12/13 00:04:05;;;;;;;55.13;18.90;;;-1.70;94.40;;;;;;5011139;28;20473;-60
2022/12/13 00:06:32;;;;;;;64.27;21.87;;;-1.70;94.20;;;;;;5010956;28;20625;-59
2022/12/13 00:09:00;;;;;;;52.23;17.67;;;-1.80;94.30;;;;;;5038529;28;20475;-59
2022/12/13 00:11:27;;;;;;;73.43;23.83;;;-1.80;94.40;;;;;;5015879;28;20472;-60
2022/12/13 00:13:54;;;;;;;62.37;18.93;;;-1.80;94.50;;;;;;5014867;28;20586;-59
2022/12/13 00:16:24;;;;;;;64.40;19.80;;;-1.80;94.40;;;;;;5013618;28;20473;-60
2022/12/13 00:18:54;;;;;;;56.57;17.27;;;-1.90;94.40;;;;;;5026612;28;20469;-60
2022/12/13 00:21:23;;;;;;;61.60;20.10;;;;;;;;;;5013336;28;20484;-59
2022/12/13 00:23:50;;;;;;;59.13;18.90;;;;;;;;;;5012149;28;20472;-60
2022/12/13 00:26:19;;;;;;;49.80;15.40;;;1.80;96.00;;;;;;5043371;28;20485;-59
2022/12/13 00:28:48;;;;;;;48.13;18.50;;;-1.80;94.50;;;;;;5032443;28;20487;-59
2022/12/13 00:31:15;;;;;;;48.40;15.87;;;-1.90;94.30;;;;;;5017413;28;20481;-60
2022/12/13 00:33:43;;;;;;;62.00;19.37;;;;;;;;;;5013108;28;20484;-59
2022/12/13 00:36:10;;;;;;;63.63;17.77;;;-1.90;94.60;;;;;;5032776;28;22029;-59
2022/12/13 00:38:38;;;;;;;43.17;13.47;;;-1.90;94.70;;;;;;5024338;28;20672;-59
2022/12/13 00:41:13;;;;;;;56.10;15.80;;;-1.90;94.70;;;;;;5024167;28;20477;-59
2022/12/13 00:43:39;;;;;;;61.63;16.90;;;-2.00;94.60;;;;;;5018944;28;20948;-58
2022/12/13 00:46:08;;;;;;;54.00;17.50;;;-2.10;94.60;;;;;;5024278;28;21241;-59
2022/12/13 00:48:35;;;;;;;57.63;18.70;;;0.10;95.70;;;;;;5028356;28;20834;-59
2022/12/13 00:51:07;;;;;;;41.83;15.60;;;-2.00;94.50;;;;;;5028860;28;20909;-58
2022/12/13 00:53:34;;;;;;;61.50;20.40;;;-2.10;94.20;;;;;;5020859;28;20483;-59
2022/12/13 00:56:02;;;;;;;55.47;16.70;;;-2.10;94.30;;;;;;5015063;28;20563;-59
2022/12/13 00:58:28;;;;;;;80.67;21.07;;;-2.10;94.40;;;;;;5026443;28;20750;-59
2022/12/13 01:01:03;;;;;;;35.17;12.33;;;-2.10;94.50;;;;;;5019708;28;20473;-59
2022/12/13 01:03:30;;;;;;;67.27;19.07;;;;;;;;;;5029114;28;20468;-58
2022/12/13 01:05:58;;;;;;;38.80;15.20;;;-2.10;94.70;;;;;;5039998;28;20487;-59
2022/12/13 01:08:27;;;;;;;71.90;17.33;;;-2.10;94.90;;;;;;5026159;28;20561;-59
2022/12/13 01:10:54;;;;;;;40.00;13.40;;;-2.10;94.80;;;;;;5039560;28;20577;-59
2022/12/13 01:13:21;;;;;;;52.73;14.97;;;-2.20;94.60;;;;;;5038174;28;20476;-58
2022/12/13 01:15:48;;;;;;;46.87;13.70;;;-2.30;94.70;;;;;;5035592;28;20957;-59
2022/12/13 01:18:17;;;;;;;52.00;15.60;;;-2.00;94.90;;;;;;5040274;28;20494;-58
2022/12/13 01:20:44;;;;;;;48.60;15.27;;;-2.30;94.90;;;;;;5040907;28;20571;-59
2022/12/13 01:23:11;;;;;;;51.53;15.87;;;-6.30;92.90;;;;;;5036076;28;20503;-59
2022/12/13 01:25:39;;;;;;;43.10;14.30;;;-2.20;94.80;;;;;;5039095;28;20491;-59
2022/12/13 01:28:06;;;;;;;51.87;15.03;;;;;;;;;;5024526;28;20493;-59
2022/12/13 01:30:32;;;;;;;77.00;22.20;;;-2.10;94.30;;;;;;5018197;28;20673;-58
2022/12/13 01:32:59;;;;;;;63.80;17.07;;;-2.10;94.20;;;;;;5019145;28;20473;-59
2022/12/13 01:35:26;;;;;;;56.80;16.93;;;-2.10;94.40;;;;;;5015798;28;20500;-58
2022/12/13 01:37:54;;;;;;;44.53;15.93;;;;;;;;;;5016057;28;20489;-59
2022/12/13 01:40:21;;;;;;;34.43;13.23;;;-2.10;94.70;;;;;;5016533;28;20750;-59
2022/12/13 01:42:49;;;;;;;49.10;14.80;;;-2.10;94.40;;;;;;5026724;28;20472;-59
2022/12/13 01:45:23;;;;;;;49.30;15.10;;;-2.10;94.20;;;;;;5035927;28;20488;-59
2022/12/13 01:47:54;;;;;;;47.60;16.17;;;-2.10;94.00;;;;;;5034304;28;20995;-59
2022/12/13 01:50:25;;;;;;;65.17;19.30;;;-2.20;93.70;;;;;;5037332;28;20476;-59
2022/12/13 01:52:54;;;;;;;48.33;16.77;;;-2.20;93.70;;;;;;5036645;28;20977;-59
2022/12/13 01:55:23;;;;;;;63.33;19.47;;;-2.20;93.80;;;;;;5037689;28;20486;-58
2022/12/13 01:57:53;;;;;;;49.27;16.57;;;;;;;;;;5037328;28;21162;-59
2022/12/13 02:00:20;;;;;;;56.60;18.27;;;;;;;;;;5034654;28;20503;-60
2022/12/13 02:02:49;;;;;;;47.87;16.77;;;-2.30;93.80;;;;;;5030510;28;20480;-59
2022/12/13 02:05:22;;;;;;;40.40;13.97;;;-2.40;93.90;;;;;;5026101;28;20472;-59
2022/12/13 02:07:50;;;;;;;44.73;13.33;;;;;;;;;;5014729;28;20492;-59
2022/12/13 02:10:17;;;;;;;49.53;14.60;;;-2.40;94.10;;;;;;5025945;28;20656;-58
2022/12/13 02:12:44;;;;;;;43.37;15.00;;;-2.50;93.90;;;;;;5032600;28;20488;-59
2022/12/13 02:15:15;;;;;;;40.67;14.50;;;-2.50;93.90;;;;;;5036959;28;20488;-58
2022/12/13 02:18:14;;;;;;;61.53;19.27;;;-1.90;94.00;;;;;;5027740;28;20492;-59
2022/12/13 02:21:01;;;;;;;51.50;18.07;;;-2.60;93.70;;;;;;5014946;28;20485;-58
2022/12/13 02:23:55;;;;;;;65.97;18.97;;;-2.70;93.70;;;;;;5017595;28;20491;-58
2022/12/13 02:26:44;;;;;;;76.03;25.70;;;-2.70;94.00;;;;;;5019221;28;20821;-58
2022/12/13 02:29:32;;;;;;;62.57;20.67;;;-2.70;94.20;;;;;;5021465;28;20476;-58
2022/12/13 02:32:05;;;;;;;62.37;19.13;;;-2.70;94.20;;;;;;5029934;28;20468;-58
2022/12/13 02:34:38;;;;;;;103.00;30.40;;;-2.70;94.20;;;;;;5028827;28;20978;-57
2022/12/13 02:37:08;;;;;;;91.77;26.40;;;-2.70;94.10;;;;;;5014537;28;20852;-59
2022/12/13 02:39:39;;;;;;;78.97;22.33;;;-2.70;93.90;;;;;;5032554;28;21023;-58
2022/12/13 02:42:10;;;;;;;86.10;23.10;;;-2.70;94.10;;;;;;5022979;28;21025;-59
2022/12/13 02:44:40;;;;;;;61.23;21.77;;;;;;;;;;5048033;28;20496;-59
2022/12/13 02:47:13;;;;;;;70.17;20.43;;;-2.70;94.30;;;;;;5031962;28;20515;-59
2022/12/13 02:49:45;;;;;;;62.60;18.80;;;-2.70;94.40;;;;;;5033147;28;20497;-59
2022/12/13 02:52:15;;;;;;;68.37;16.93;;;0.60;95.80;;;;;;5035148;28;20488;-58
2022/12/13 02:54:42;;;;;;;65.63;19.73;;;-2.70;94.50;;;;;;5033666;28;20485;-58
2022/12/13 02:57:23;;;;;;;61.23;21.13;;;;;;;;;;5030724;28;20488;-58
2022/12/13 02:59:50;;;;;;;70.67;20.40;;;-2.70;94.60;;;;;;5035169;28;20808;-59
2022/12/13 03:02:30;;;;;;;69.63;22.53;;;-2.60;94.70;;;;;;5034452;28;20832;-59
2022/12/13 03:07:53;;;;;;;46.43;18.70;;;;;;;;;;5018658;28;20848;-59
2022/12/13 03:10:29;;;;;;;52.90;18.60;;;-2.60;94.30;;;;;;5026054;28;21033;-58
2022/12/13 03:15:53;;;;;;;52.57;16.97;;;-2.60;94.10;;;;;;5035662;28;20476;-58
2022/12/13 03:18:23;;;;;;;84.17;20.47;;;-2.60;94.20;;;;;;5022517;28;20476;-58
2022/12/13 03:20:51;;;;;;;36.40;12.30;;;-2.70;94.40;;;;;;5022185;28;20883;-59
2022/12/13 03:23:20;;;;;;;47.50;15.70;;;;;;;;;;5018181;28;20480;-58
2022/12/13 03:25:49;;;;;;;38.33;12.47;;;-2.70;94.50;;;;;;5021528;28;20491;-58
2022/12/13 03:28:16;;;;;;;44.10;16.13;;;;;;;;;;5028614;28;21403;-58
2022/12/13 03:30:43;;;;;;;42.67;13.47;;;-2.70;94.60;;;;;;5035095;28;20715;-59
2022/12/13 03:33:10;;;;;;;49.63;14.80;;;;;;;;;;5036148;28;20492;-58
2022/12/13 03:35:40;;;;;;;56.00;16.63;;;-2.70;94.60;;;;;;5031617;28;20484;-58
2022/12/13 03:38:06;;;;;;;48.43;14.40;;;-2.70;94.50;;;;;;5025597;28;20890;-58
2022/12/13 03:40:34;;;;;;;89.07;20.77;;;-2.70;94.40;;;;;;5034578;28;20481;-57
2022/12/13 03:43:01;;;;;;;41.10;13.60;;;-2.70;94.40;;;;;;5026715;28;20695;-59
2022/12/13 03:45:28;;;;;;;70.27;20.60;;;-2.70;94.50;;;;;;5014928;28;20490;-59
2022/12/13 03:47:55;;;;;;;32.53;11.50;;;-2.80;94.20;;;;;;5026034;28;20480;-58
2022/12/13 03:50:21;;;;;;;60.50;17.10;;;-2.80;94.30;;;;;;5019641;28;20473;-58
2022/12/13 03:52:50;;;;;;;39.87;14.40;;;-2.80;94.50;;;;;;5014400;28;20478;-59
2022/12/13 03:55:17;;;;;;;54.83;17.70;;;-2.80;94.50;;;;;;5014563;28;20503;-59
2022/12/13 03:57:44;;;;;;;39.27;11.57;;;-2.80;94.30;;;;;;5010552;28;20525;-59
2022/12/13 04:00:13;;;;;;;30.93;11.40;;;-2.80;94.40;;;;;;5014548;28;20485;-58
2022/12/13 04:02:40;;;;;;;63.20;15.03;;;;;;;;;;5012914;28;20477;-58
2022/12/13 04:05:07;;;;;;;73.20;20.30;;;-2.80;94.40;;;;;;5039019;28;20488;-59
2022/12/13 04:07:34;;;;;;;55.90;19.43;;;-2.80;94.40;;;;;;5032213;28;20488;-59
2022/12/13 04:10:03;;;;;;;45.80;14.30;;;;;;;;;;5026789;28;20491;-59
2022/12/13 04:15:15;;;;;;;35.93;10.27;;;-2.90;94.50;;;;;;5031033;28;20475;-58
2022/12/13 04:17:41;;;;;;;48.87;15.80;;;-2.90;94.60;;;;;;5030765;28;21032;-59
2022/12/13 04:20:09;;;;;;;37.33;11.70;;;-2.90;94.50;;;;;;5035730;28;21241;-59
2022/12/13 04:22:36;;;;;;;53.83;14.87;;;;;;;;;;5033928;28;20485;-58
2022/12/13 04:25:05;;;;;;;44.47;16.57;;;-3.00;94.40;;;;;;5035718;28;20955;-59
2022/12/13 04:27:32;;;;;;;56.27;14.53;;;-3.00;94.40;;;;;;5025832;28;21012;-59
2022/12/13 04:29:58;;;;;;;36.97;14.13;;;-3.00;94.60;;;;;;5034841;28;20495;-58
2022/12/13 04:32:25;;;;;;;64.63;19.23;;;-3.00;94.70;;;;;;5031923;28;20995;-59
2022/12/13 04:34:52;;;;;;;46.73;16.60;;;-2.90;94.60;;;;;;5024522;28;20896;-58
2022/12/13 04:37:19;;;;;;;52.73;16.40;;;-2.90;94.30;;;;;;5033332;28;20476;-58
2022/12/13 04:39:45;;;;;;;45.00;14.30;;;-2.90;94.20;;;;;;5035106;28;20477;-58
2022/12/13 04:42:14;;;;;;;50.00;13.90;;;-3.00;94.00;;;;;;5036252;28;20487;-59
2022/12/13 04:44:41;;;;;;;47.10;13.93;;;-3.00;94.00;;;;;;5034235;28;20485;-58
2022/12/13 04:47:07;;;;;;;40.93;13.33;;;-3.00;94.10;;;;;;5033502;28;20485;-58
2022/12/13 04:49:34;;;;;;;50.47;14.57;;;-3.00;94.00;;;;;;5034323;28;20652;-59
2022/12/13 04:52:02;;;;;;;37.30;12.23;;;-3.00;94.10;;;;;;5035220;28;20827;-58
2022/12/13 04:54:29;;;;;;;60.10;15.57;;;-3.10;94.20;;;;;;5033815;28;20915;-58
2022/12/13 04:56:55;;;;;;;29.10;11.00;;;-3.20;94.20;;;;;;5033368;28;20464;-58
2022/12/13 04:59:23;;;;;;;61.43;13.87;;;-3.10;94.40;;;;;;5034241;28;21048;-59
2022/12/13 05:01:50;;;;;;;37.30;11.13;;;;;;;;;;5033445;28;20489;-58
2022/12/13 05:04:18;;;;;;;53.40;12.37;;;;;;;;;;5033754;28;20484;-58
2022/12/13 05:06:44;;;;;;;53.10;12.00;;;-3.20;94.70;;;;;;5024215;28;20498;-58
2022/12/13 05:09:11;;;;;;;46.87;13.10;;;-3.20;94.80;;;;;;5014313;28;20492;-58
2022/12/13 05:11:38;;;;;;;56.90;13.50;;;-3.20;94.80;;;;;;5017083;28;20915;-59
2022/12/13 05:14:04;;;;;;;41.00;10.77;;;-3.20;94.60;;;;;;5012043;28;20884;-59
2022/12/13 05:16:32;;;;;;;66.83;17.30;;;-1.10;95.50;;;;;;5017458;28;20477;-59
2022/12/13 05:18:59;;;;;;;44.40;13.10;;;-3.10;94.70;;;;;;5006417;28;20492;-58
2022/12/13 05:21:26;;;;;;;49.93;14.20;;;-3.10;94.60;;;;;;5022436;28;20487;-59
2022/12/13 05:23:53;;;;;;;42.37;12.03;;;;;;;;;;5012451;28;20488;-59
2022/12/13 05:26:20;;;;;;;71.60;18.40;;;;;;;;;;5020461;28;20507;-59
2022/12/13 05:28:47;;;;;;;37.53;9.80;;;-3.20;94.30;;;;;;5014479;28;20535;-60
2022/12/13 05:31:14;;;;;;;40.97;11.83;;;-3.20;94.30;;;;;;5024926;28;20811;-59
2022/12/13 05:33:42;;;;;;;41.47;12.33;;;-3.20;94.30;;;;;;5013758;28;20507;-59
2022/12/13 05:36:09;;;;;;;45.90;14.90;;;-3.20;94.30;;;;;;5017303;28;20491;-59
2022/12/13 05:38:36;;;;;;;61.00;17.30;;;-1.80;95.10;;;;;;5016382;28;20484;-59
2022/12/13 05:41:03;;;;;;;41.97;15.57;;;-3.10;94.30;;;;;;5017505;28;20995;-58
2022/12/13 05:43:30;;;;;;;81.23;20.23;;;-3.00;94.20;;;;;;5024783;28;20482;-58
2022/12/13 05:45:56;;;;;;;62.50;17.80;;;-3.00;94.00;;;;;;5031984;28;20850;-59
2022/12/13 05:48:23;;;;;;;87.63;20.47;;;;;;;;;;5033649;28;20480;-58
2022/12/13 05:50:52;;;;;;;53.73;18.00;;;-3.00;94.00;;;;;;5034089;28;20484;-58
2022/12/13 05:53:18;;;;;;;60.80;17.80;;;-3.00;94.00;;;;;;5035533;28;20575;-58
2022/12/13 05:55:45;;;;;;;47.13;14.50;;;-3.00;93.90;;;;;;5037209;28;20875;-59
2022/12/13 05:58:14;;;;;;;51.40;15.60;;;-3.00;94.00;;;;;;5033658;28;20561;-59
2022/12/13 06:00:40;;;;;;;58.63;15.00;;;-3.00;94.10;;;;;;5036936;28;20480;-59
2022/12/13 06:03:07;;;;;;;51.70;14.33;;;-3.00;94.00;;;;;;5029618;28;20487;-58
2022/12/13 06:05:34;;;;;;;62.40;15.70;;;-3.00;94.10;;;;;;5033058;28;20496;-59
2022/12/13 06:08:02;;;;;;;34.93;12.00;;;-3.00;94.10;;;;;;5029366;28;20488;-59
2022/12/13 06:10:30;;;;;;;103.23;20.50;;;;;;;;;;5030572;28;20485;-59
2022/12/13 06:12:57;;;;;;;53.90;15.80;;;-3.10;94.10;;;;;;5035090;28;20480;-58
2022/12/13 06:15:23;;;;;;;51.73;15.27;;;-3.00;94.20;;;;;;5032078;28;20492;-59
2022/12/13 06:17:50;;;;;;;44.87;13.20;;;;;;;;;;5022428;28;21055;-59
2022/12/13 06:20:18;;;;;;;50.27;14.47;;;-3.00;94.30;;;;;;5037698;28;20486;-59
2022/12/13 06:22:44;;;;;;;62.07;15.47;;;-3.00;94.30;;;;;;5031250;28;20495;-59
2022/12/13 06:25:12;;;;;;;43.80;12.17;;;-3.00;94.20;;;;;;5033912;28;20488;-59
2022/12/13 06:27:39;;;;;;;49.33;13.60;;;-3.00;94.30;;;;;;5031849;28;20479;-59
2022/12/13 06:30:06;;;;;;;52.83;13.50;;;;;;;;;;5029079;28;20476;-59
2022/12/13 06:32:33;;;;;;;148.20;22.20;;;;;;;;;;5030829;28;20574;-59
2022/12/13 06:35:01;;;;;;;26.83;9.73;;;;;;;;;;5031701;28;20970;-59
2022/12/13 06:37:27;;;;;;;69.70;19.50;;;-2.90;94.00;;;;;;5035107;28;20924;-58
2022/12/13 06:39:54;;;;;;;42.13;15.23;;;-2.90;94.10;;;;;;5033972;28;20480;-59
2022/12/13 06:42:22;;;;;;;47.70;15.47;;;-3.00;94.10;;;;;;5036841;28;20864;-59
2022/12/13 06:44:50;;;;;;;51.57;14.33;;;-3.00;94.10;;;;;;5018895;28;20859;-58
2022/12/13 06:47:18;;;;;;;43.27;14.37;;;;;;;;;;5011713;28;20488;-58
2022/12/13 06:49:45;;;;;;;47.93;15.27;;;-2.90;94.30;;;;;;5026499;28;20989;-58
2022/12/13 06:52:13;;;;;;;33.10;11.43;;;-2.90;94.10;;;;;;5022432;28;20494;-59
2022/12/13 06:54:40;;;;;;;54.50;13.87;;;-2.90;94.10;;;;;;5022074;28;20490;-58
2022/12/13 06:57:07;;;;;;;41.07;12.70;;;-2.90;94.00;;;;;;5026305;28;20480;-59
2022/12/13 06:59:35;;;;;;;69.00;20.03;;;-5.90;92.60;;;;;;5020688;28;20544;-58
2022/12/13 07:02:02;;;;;;;38.10;12.60;;;-3.00;93.80;;;;;;5016803;28;21000;-58
2022/12/13 07:04:28;;;;;;;67.27;18.37;;;-3.10;93.70;;;;;;5024913;28;20480;-59
2022/12/13 07:06:55;;;;;;;43.33;14.80;;;-3.10;94.00;;;;;;5027484;28;20481;-58
2022/12/13 07:09:22;;;;;;;64.50;17.10;;;-3.10;94.10;;;;;;5042060;28;20483;-58
2022/12/13 07:11:49;;;;;;;61.03;14.03;;;;;;;;;;5024026;28;20505;-58
2022/12/13 07:14:16;;;;;;;70.80;16.23;;;;;;;;;;5034671;28;20476;-59
2022/12/13 07:16:44;;;;;;;86.03;16.10;;;-3.10;94.10;;;;;;5030240;28;20576;-58
2022/12/13 07:19:11;;;;;;;61.87;14.03;;;;;;;;;;5035026;28;20480;-59
2022/12/13 07:21:38;;;;;;;54.03;12.30;;;-3.20;94.10;;;;;;5029330;28;20492;-59
2022/12/13 07:24:06;;;;;;;56.73;12.93;;;;;;;;;;5035102;28;20484;-59
2022/12/13 07:26:33;;;;;;;138.37;22.23;;;;;;;;;;5025721;28;20823;-59
2022/12/13 07:29:00;;;;;;;64.33;14.23;;;-3.10;94.10;;;;;;5015536;28;21001;-58
2022/12/13 07:31:27;;;;;;;105.20;21.07;;;;;;;;;;5015299;28;20477;-58
2022/12/13 07:33:55;;;;;;;44.13;13.90;;;-6.10;92.80;;;;;;5014760;28;20842;-59
2022/12/13 07:36:23;;;;;;;63.83;18.90;;;-3.00;94.40;;;;;;5014868;28;20473;-59
2022/12/13 07:38:53;;;;;;;42.00;12.90;;;;;;;;;;5013907;28;21051;-58
2022/12/13 07:41:20;;;;;;;40.27;12.97;;;;;;;;;;5014237;28;20879;-59
2022/12/13 07:43:47;;;;;;;50.23;15.10;;;-2.80;94.30;;;;;;5015779;28;20472;-58
2022/12/13 07:46:14;;;;;;;47.57;13.63;;;-2.70;94.30;;;;;;5011429;28;20493;-59
2022/12/13 07:48:41;;;;;;;55.57;16.40;;;-2.70;93.90;;;;;;5014834;28;20488;-59
2022/12/13 07:51:11;;;;;;;37.87;13.00;;;-2.60;94.10;;;;;;5023234;28;20478;-59
2022/12/13 07:53:38;;;;;;;39.60;14.67;;;-2.60;94.40;;;;;;5011172;28;20498;-58
2022/12/13 07:56:06;;;;;;;60.83;15.53;;;;;;;;;;5023750;28;21208;-60
2022/12/13 07:58:33;;;;;;;72.97;17.37;;;;;;;;;;5023121;28;20483;-59
2022/12/13 08:01:01;;;;;;;61.87;15.80;;;;;;;;;;5016988;28;20512;-59
2022/12/13 08:03:28;;;;;;;73.83;18.70;;;-2.50;93.90;;;;;;5030228;28;20491;-59
2022/12/13 08:06:01;;;;;;;29.13;12.50;;;-2.50;93.80;;;;;;5007045;28;20591;-59
2022/12/13 08:08:30;;;;;;;67.53;20.53;;;-2.50;94.00;;;;;;5018447;28;20477;-59
2022/12/13 08:11:00;;;;;;;44.73;13.60;;;;;;;;;;5016695;28;20494;-60
2022/12/13 08:13:27;;;;;;;61.40;15.00;;;-2.40;93.80;;;;;;5013927;28;20495;-59
2022/12/13 08:15:57;;;;;;;40.57;13.27;;;-2.30;94.10;;;;;;5044926;28;20862;-59
2022/12/13 08:18:24;;;;;;;48.73;14.87;;;-2.20;94.20;;;;;;5014140;28;20485;-59
2022/12/13 08:20:51;;;;;;;57.13;15.17;;;-2.00;94.10;;;;;;5010254;28;20500;-59
2022/12/13 08:23:17;;;;;;;44.20;14.43;;;-1.70;94.70;;;;;;5021733;28;20493;-60
2022/12/13 08:25:51;;;;;;;130.43;34.07;;;-1.00;95.10;;;;;;5002717;28;20883;-59
2022/12/13 08:28:18;;;;;;;39.70;12.50;;;2.00;95.80;;;;;;4994771;28;20863;-59
2022/12/13 08:30:45;;;;;;;58.03;18.13;;;-0.10;93.80;;;;;;5017806;28;20485;-60
2022/12/13 08:33:12;;;;;;;45.33;15.67;;;0.20;93.30;;;;;;5019900;28;20882;-59
2022/12/13 08:35:38;;;;;;;48.30;15.47;;;2.40;93.60;;;;;;5005886;28;20884;-60
2022/12/13 08:38:05;;;;;;;82.47;19.70;;;0.40;92.30;;;;;;5010599;28;20791;-60
2022/12/13 08:40:33;;;;;;;78.30;20.50;;;0.50;92.50;;;;;;5021196;28;20484;-59
2022/12/13 08:43:01;;;;;;;68.00;16.30;;;0.60;92.50;;;;;;5011717;28;20496;-59
2022/12/13 08:45:28;;;;;;;111.03;22.80;;;;;;;;;;5015186;28;20484;-60
2022/12/13 08:47:58;;;;;;;45.43;17.43;;;1.00;92.30;;;;;;5018057;28;20485;-61
2022/12/13 08:50:24;;;;;;;86.03;23.10;;;1.30;92.30;;;;;;5017179;28;20488;-59
2022/12/13 08:52:52;;;;;;;45.70;17.00;;;1.60;92.30;;;;;;5015180;28;21988;-59
2022/12/13 08:55:19;;;;;;;59.07;19.30;;;1.80;92.00;;;;;;5023929;28;20617;-60
2022/12/13 08:57:46;;;;;;;46.80;15.80;;;2.10;91.90;;;;;;5012555;28;21014;-59
2022/12/13 09:00:16;;;;;;;65.53;19.80;;;2.20;91.80;;;;;;5018401;28;20862;-59
2022/12/13 09:02:43;;;;;;;48.67;15.30;;;2.20;91.20;;;;;;5016860;28;20507;-59
2022/12/13 09:05:11;;;;;;;74.70;18.40;;;2.00;91.10;;;;;;5026283;28;20480;-59
2022/12/13 09:07:39;;;;;;;50.63;12.97;;;1.90;91.20;;;;;;5025745;28;20533;-59
2022/12/13 09:10:07;;;;;;;60.67;20.20;;;1.80;91.50;;;;;;5006105;28;20488;-59
2022/12/13 09:12:34;;;;;;;54.70;19.63;;;1.60;91.50;;;;;;5014235;28;20488;-59
2022/12/13 09:15:01;;;;;;;38.67;15.70;;;1.50;91.80;;;;;;5014631;28;20484;-59
2022/12/13 09:17:30;;;;;;;67.60;21.97;;;1.40;91.80;;;;;;5020808;28;20492;-59
2022/12/13 09:19:57;;;;;;;43.30;15.87;;;1.20;91.80;;;;;;5013249;28;20584;-59
2022/12/13 09:22:24;;;;;;;42.57;15.10;;;;;;;;;;5014374;28;20508;-59
2022/12/13 09:24:51;;;;;;;30.03;11.63;;;;;;;;;;5021931;28;20480;-59
2022/12/13 09:27:18;;;;;;;38.53;16.57;;;0.90;92.30;;;;;;5011221;28;20492;-59
2022/12/13 09:29:45;;;;;;;40.23;16.10;;;0.90;92.30;;;;;;5013799;28;20487;-58
2022/12/13 09:32:12;;;;;;;60.03;18.03;;;0.90;92.30;;;;;;5019335;28;20477;-59
2022/12/13 09:34:41;;;;;;;36.77;14.27;;;;;;;;;;5012577;28;20472;-59
2022/12/13 09:37:10;;;;;;;41.53;17.60;;;0.90;92.60;;;;;;5021768;28;20477;-59
2022/12/13 09:39:37;;;;;;;41.77;15.17;;;1.00;92.70;;;;;;5010119;28;20494;-59
2022/12/13 09:42:04;;;;;;;25.90;10.70;;;1.00;92.20;;;;;;5011988;28;20517;-59
2022/12/13 09:44:33;;;;;;;40.13;14.30;;;;;;;;;;5007593;28;20485;-59
2022/12/13 09:47:02;;;;;;;40.63;10.50;;;0.90;92.00;;;;;;5008667;28;20484;-58
2022/12/13 09:49:34;;;;;;;48.80;15.47;;;0.90;92.20;;;;;;5014319;28;21783;-59
2022/12/13 09:52:04;;;;;;;29.50;11.67;;;;;;;;;;5017245;28;20812;-58
2022/12/13 09:54:33;;;;;;;36.43;13.67;;;1.00;91.90;;;;;;5033164;28;21009;-59
2022/12/13 09:57:00;;;;;;;34.10;9.70;;;1.00;92.20;;;;;;5029749;28;21506;-59
2022/12/13 09:59:29;;;;;;;44.23;13.20;;;1.00;91.60;;;;;;5017237;28;20499;-59
2022/12/13 10:01:57;;;;;;;27.47;10.87;;;;;;;;;;5021023;28;20901;-59
2022/12/13 10:04:24;;;;;;;49.80;17.10;;;;;;;;;;5022195;28;20571;-59
2022/12/13 10:06:54;;;;;;;31.77;9.40;;;1.00;91.70;;;;;;5017620;28;20479;-59
2022/12/13 10:09:26;;;;;;;30.07;12.40;;;1.00;92.10;;;;;;5012542;28;20485;-59
2022/12/13 10:11:55;;;;;;;28.73;9.60;;;1.10;92.20;;;;;;5027046;28;20549;-59
2022/12/13 10:14:28;;;;;;;39.57;9.20;;;1.10;91.80;;;;;;5017802;28;20559;-58
2022/12/13 10:16:57;;;;;;;27.70;8.90;;;;;;;;;;5016017;28;20471;-59
2022/12/13 10:19:29;;;;;;;53.07;14.70;;;1.10;91.10;;;;;;5013031;28;20616;-59
2022/12/13 10:21:56;;;;;;;23.90;8.30;;;1.20;91.20;;;;;;5018667;28;20998;-59
2022/12/13 10:24:29;;;;;;;37.10;11.50;;;1.20;91.30;;;;;;5017194;28;20508;-59
2022/12/13 10:26:59;;;;;;;28.03;9.43;;;1.20;90.40;;;;;;5009457;28;21207;-59
2022/12/13 10:29:26;;;;;;;42.97;13.57;;;1.20;90.80;;;;;;5013686;28;21028;-59
2022/12/13 10:31:53;;;;;;;38.40;12.20;;;;;;;;;;5024648;28;20675;-59
2022/12/13 10:34:23;;;;;;;43.37;12.10;;;1.20;90.80;;;;;;5032201;28;20483;-59
2022/12/13 10:36:50;;;;;;;36.40;10.00;;;;;;;;;;5014062;28;20853;-59
2022/12/13 10:39:19;;;;;;;36.37;9.50;;;1.40;90.40;;;;;;5010494;28;21079;-59
2022/12/13 10:41:47;;;;;;;30.40;6.80;;;1.30;88.70;;;;;;5003376;28;20901;-59
2022/12/13 10:44:20;;;;;;;36.00;9.80;;;1.40;89.80;;;;;;5018853;28;21063;-59
2022/12/13 10:46:53;;;;;;;37.83;8.63;;;1.40;90.00;;;;;;5026202;28;20480;-59
2022/12/13 10:49:22;;;;;;;52.53;11.67;;;1.40;89.40;;;;;;5002902;28;21715;-59
2022/12/13 10:51:50;;;;;;;22.67;7.00;;;1.40;88.00;;;;;;5022668;28;20793;-59
2022/12/13 10:54:25;;;;;;;42.30;9.67;;;1.40;88.10;;;;;;5016475;28;20480;-59
2022/12/13 10:56:58;;;;;;;26.20;6.97;;;1.40;87.90;;;;;;5020600;28;20476;-59
2022/12/13 10:59:27;;;;;;;48.27;11.97;;;;;;;;;;5005442;28;20671;-59
2022/12/13 11:01:54;;;;;;;37.43;9.30;;;1.40;88.40;;;;;;5013064;28;20485;-59
2022/12/13 11:04:24;;;;;;;45.63;12.03;;;1.30;89.10;;;;;;5000746;28;20897;-58
2022/12/13 11:06:51;;;;;;;30.93;8.20;;;1.30;87.40;;;;;;5011601;28;20547;-59
2022/12/13 11:09:26;;;;;;;25.27;7.90;;;1.30;87.10;;;;;;5008018;28;20488;-58
2022/12/13 11:11:56;;;;;;;23.10;7.60;;;1.20;87.10;;;;;;4998848;28;20490;-59
2022/12/13 11:14:25;;;;;;;56.00;13.53;;;1.30;90.00;;;;;;5019528;28;20473;-59
2022/12/13 11:16:56;;;;;;;31.07;9.97;;;1.40;88.40;;;;;;5008838;28;20520;-59
2022/12/13 11:19:29;;;;;;;35.20;9.73;;;1.30;86.10;;;;;;5020809;28;20619;-59
2022/12/13 11:21:56;;;;;;;15.40;6.93;;;1.30;86.00;;;;;;5002767;28;20477;-59
2022/12/13 11:24:25;;;;;;;48.27;13.07;;;1.30;86.10;;;;;;4995857;28;20480;-59
2022/12/13 11:26:56;;;;;;;17.53;5.47;;;;;;;;;;5001609;28;21051;-58
2022/12/13 11:29:52;;;;;;;36.80;11.07;;;1.20;86.40;;;;;;4998943;28;20476;-59
2022/12/13 11:32:29;;;;;;;23.17;8.33;;;1.20;85.80;;;;;;5007465;28;20475;-58
2022/12/13 11:35:03;;;;;;;16.63;8.07;;;1.20;86.80;;;;;;5015401;28;20483;-59
2022/12/13 11:37:33;;;;;;;42.70;12.03;;;1.20;85.80;;;;;;5017151;28;20468;-59
2022/12/13 11:40:05;;;;;;;40.50;9.33;;;2.90;87.90;;;;;;5006519;28;21229;-58
2022/12/13 11:42:39;;;;;;;38.53;10.50;;;1.10;86.30;;;;;;5012293;28;21037;-59
2022/12/13 11:45:13;;;;;;;26.30;8.87;;;1.10;85.40;;;;;;5023968;28;20476;-60
2022/12/13 11:47:46;;;;;;;25.00;9.93;;;1.20;85.60;;;;;;5010078;28;20485;-60
2022/12/13 11:50:16;;;;;;;47.13;9.90;;;1.20;86.30;;;;;;5012702;28;21068;-59
2022/12/13 11:52:51;;;;;;;36.93;7.97;;;1.30;86.00;;;;;;5021330;28;20512;-59
2022/12/13 11:55:22;;;;;;;44.57;10.70;;;1.20;85.60;;;;;;5009410;28;20489;-60
2022/12/13 11:57:59;;;;;;;40.97;10.43;;;2.00;87.90;;;;;;5029001;28;21107;-59
2022/12/13 12:00:35;;;;;;;57.90;13.83;;;1.60;87.50;;;;;;5008496;28;20564;-60
2022/12/13 12:03:16;;;;;;;54.90;13.87;;;1.70;86.60;;;;;;5013574;28;20551;-59
2022/12/13 12:05:48;;;;;;;72.93;12.17;;;1.70;85.70;;;;;;5016651;28;20977;-60
2022/12/13 12:08:20;;;;;;;73.93;14.50;;;1.80;87.00;;;;;;5016804;28;20526;-59
2022/12/13 12:10:48;;;;;;;65.67;12.63;;;1.90;87.70;;;;;;5014882;28;20484;-59
2022/12/13 12:13:21;;;;;;;75.90;13.63;;;2.00;86.00;;;;;;5012095;28;20495;-59
2022/12/13 12:15:52;;;;;;;59.30;10.37;;;1.90;83.60;;;;;;5019559;28;20488;-59
2022/12/13 12:18:19;;;;;;;71.50;13.60;;;;;;;;;;5009495;28;20492;-59
2022/12/13 12:21:00;;;;;;;35.73;7.97;;;1.90;83.30;;;;;;5010995;28;20560;-59
2022/12/13 12:23:39;;;;;;;99.03;16.37;;;1.80;83.10;;;;;;5013768;28;20487;-59
2022/12/13 12:26:10;;;;;;;69.77;12.53;;;1.90;84.60;;;;;;5002838;28;20483;-59
2022/12/13 12:28:56;;;;;;;60.20;11.40;;;1.80;83.10;;;;;;5014882;28;20491;-59
2022/12/13 12:31:29;;;;;;;65.00;11.83;;;1.90;84.20;;;;;;5019173;28;21075;-59
2022/12/13 12:34:09;;;;;;;29.07;7.80;;;2.00;84.00;;;;;;5005870;28;20478;-60
2022/12/13 12:36:53;;;;;;;37.80;9.00;;;2.00;83.90;;;;;;4994930;28;20534;-59
2022/12/13 12:39:34;;;;;;;55.27;11.77;;;2.10;84.00;;;;;;5009446;28;20481;-59
2022/12/13 12:42:16;;;;;;;30.70;7.27;;;2.00;82.30;;;;;;5010557;28;20649;-59
2022/12/13 12:44:59;;;;;;;48.40;11.03;;;2.00;82.90;;;;;;5001062;28;20481;-59
2022/12/13 12:47:31;;;;;;;57.47;12.60;;;;;;;;;;5002901;28;20496;-58
2022/12/13 12:50:13;;;;;;;18.77;6.37;;;1.80;81.50;;;;;;5009705;28;20480;-59
2022/12/13 12:52:54;;;;;;;55.43;11.87;;;1.70;82.20;;;;;;5013885;28;20479;-59
2022/12/13 12:55:31;;;;;;;53.07;10.63;;;1.70;82.40;;;;;;5006003;28;20488;-59
2022/12/13 12:58:05;;;;;;;53.70;12.60;;;1.80;83.50;;;;;;5017034;28;20836;-59
2022/12/13 13:00:41;;;;;;;73.97;14.87;;;1.80;82.90;;;;;;5013519;28;20473;-59
2022/12/13 13:03:11;;;;;;;56.47;10.27;;;;;;;;;;5005293;28;20477;-59
2022/12/13 13:05:43;;;;;;;42.60;10.13;;;2.00;84.50;;;;;;5017673;28;20481;-59
2022/12/13 13:08:15;;;;;;;55.17;10.83;;;2.00;82.90;;;;;;5010419;28;20615;-59